sensor_id;sensor_type;location;lat;lon;timestamp;temperature;humidity
5494;DHT22;2769;49.864;8.656;2022-10-17T04:44:57;16.40;99.90
5494;DHT22;2769;49.864;8.656;2022-10-17T04:47:26;16.40;99.90
5494;DHT22;2769;49.864;8.656;2022-10-17T04:54:32;16.30;99.90
5494;DHT22;2769;49.864;8.656;2022-10-17T04:57:07;16.40;99.90
5494;DHT22;2769;49.864;8.656;2022-10-17T04:59:36;16.50;99.90
5494;DHT22;2769;49.864;8.656;2022-10-17T05:02:16;16.60;99.90
5494;DHT22;2769;49.864;8.656;2022-10-17T05:04:45;16.70;99.90
5494;DHT22;2769;49.864;8.656;2022-10-17T05:07:14;16.60;99.90
5494;DHT22;2769;49.864;8.656;2022-10-17T05:09:42;16.50;99.90
5494;DHT22;2769;49.864;8.656;2022-10-17T05:12:11;16.50;99.90
5494;DHT22;2769;49.864;8.656;2022-10-17T05:14:43;16.40;99.90
5494;DHT22;2769;49.864;8.656;2022-10-17T05:17:11;16.50;99.90
5494;DHT22;2769;49.864;8.656;2022-10-17T05:19:41;16.50;99.90
5494;DHT22;2769;49.864;8.656;2022-10-17T05:22:09;16.60;99.90
5494;DHT22;2769;49.864;8.656;2022-10-17T05:24:38;16.60;99.90
5494;DHT22;2769;49.864;8.656;2022-10-17T05:27:08;16.50;99.90
5494;DHT22;2769;49.864;8.656;2022-10-17T05:29:36;16.50;99.90
5494;DHT22;2769;49.864;8.656;2022-10-17T05:32:15;16.50;99.90
5494;DHT22;2769;49.864;8.656;2022-10-17T05:34:45;16.50;99.90
5494;DHT22;2769;49.864;8.656;2022-10-17T05:37:13;16.30;99.90
5494;DHT22;2769;49.864;8.656;2022-10-17T05:39:46;16.40;99.90
5494;DHT22;2769;49.864;8.656;2022-10-17T05:42:18;16.30;99.90
5494;DHT22;2769;49.864;8.656;2022-10-17T05:44:47;16.30;99.90
5494;DHT22;2769;49.864;8.656;2022-10-17T05:47:17;16.30;99.90
5494;DHT22;2769;49.864;8.656;2022-10-17T05:49:50;16.30;99.90
5494;DHT22;2769;49.864;8.656;2022-10-17T05:52:25;16.40;99.90
5494;DHT22;2769;49.864;8.656;2022-10-17T05:55:09;16.40;99.90
5494;DHT22;2769;49.864;8.656;2022-10-17T05:57:38;16.40;99.90
5494;DHT22;2769;49.864;8.656;2022-10-17T06:00:13;16.40;99.90
5494;DHT22;2769;49.864;8.656;2022-10-17T06:02:43;16.50;99.90
5494;DHT22;2769;49.864;8.656;2022-10-17T06:05:15;16.50;99.90
5494;DHT22;2769;49.864;8.656;2022-10-17T06:07:43;16.40;99.90
5494;DHT22;2769;49.864;8.656;2022-10-17T06:10:13;16.50;99.90
5494;DHT22;2769;49.864;8.656;2022-10-17T06:12:42;16.50;99.90
5494;DHT22;2769;49.864;8.656;2022-10-17T06:15:11;16.50;99.90
5494;DHT22;2769;49.864;8.656;2022-10-17T06:17:43;16.40;99.90
5494;DHT22;2769;49.864;8.656;2022-10-17T06:20:11;16.50;99.90
5494;DHT22;2769;49.864;8.656;2022-10-17T06:22:41;16.40;99.90
5494;DHT22;2769;49.864;8.656;2022-10-17T06:25:15;16.50;99.90
5494;DHT22;2769;49.864;8.656;2022-10-17T06:27:43;16.40;99.90
5494;DHT22;2769;49.864;8.656;2022-10-17T06:30:11;16.40;99.90
5494;DHT22;2769;49.864;8.656;2022-10-17T06:32:40;16.50;99.90
5494;DHT22;2769;49.864;8.656;2022-10-17T06:35:09;16.50;99.90
5494;DHT22;2769;49.864;8.656;2022-10-17T06:37:40;16.50;99.90
5494;DHT22;2769;49.864;8.656;2022-10-17T06:40:10;16.60;99.90
5494;DHT22;2769;49.864;8.656;2022-10-17T06:42:41;16.50;99.90
5494;DHT22;2769;49.864;8.656;2022-10-17T06:45:27;16.50;99.90
5494;DHT22;2769;49.864;8.656;2022-10-17T06:48:13;16.50;99.90
5494;DHT22;2769;49.864;8.656;2022-10-17T06:51:08;16.60;99.90
5494;DHT22;2769;49.864;8.656;2022-10-17T06:53:52;16.60;99.90
5494;DHT22;2769;49.864;8.656;2022-10-17T06:56:27;16.60;99.90
5494;DHT22;2769;49.864;8.656;2022-10-17T06:59:14;16.70;99.90
5494;DHT22;2769;49.864;8.656;2022-10-17T07:01:50;16.70;99.90
5494;DHT22;2769;49.864;8.656;2022-10-17T07:04:19;16.70;99.90
5494;DHT22;2769;49.864;8.656;2022-10-17T07:06:47;16.70;99.90
5494;DHT22;2769;49.864;8.656;2022-10-17T07:09:21;16.70;99.90
5494;DHT22;2769;49.864;8.656;2022-10-17T07:11:50;16.80;99.90
5494;DHT22;2769;49.864;8.656;2022-10-17T07:14:18;16.80;99.90
5494;DHT22;2769;49.864;8.656;2022-10-17T07:16:47;17.00;99.90
5494;DHT22;2769;49.864;8.656;2022-10-17T07:19:21;17.10;99.90
5494;DHT22;2769;49.864;8.656;2022-10-17T07:21:50;17.20;99.90
5494;DHT22;2769;49.864;8.656;2022-10-17T07:24:18;17.20;99.90
5494;DHT22;2769;49.864;8.656;2022-10-17T07:26:59;17.30;99.90
5494;DHT22;2769;49.864;8.656;2022-10-17T07:29:28;17.30;99.90
5494;DHT22;2769;49.864;8.656;2022-10-17T07:32:06;17.30;99.90
5494;DHT22;2769;49.864;8.656;2022-10-17T07:34:34;17.40;99.90
5494;DHT22;2769;49.864;8.656;2022-10-17T07:37:03;17.50;99.90
5494;DHT22;2769;49.864;8.656;2022-10-17T07:39:32;17.60;99.90
5494;DHT22;2769;49.864;8.656;2022-10-17T07:42:04;17.70;99.90
5494;DHT22;2769;49.864;8.656;2022-10-17T07:44:33;17.70;99.90
5494;DHT22;2769;49.864;8.656;2022-10-17T07:47:02;17.80;99.90
5494;DHT22;2769;49.864;8.656;2022-10-17T07:49:31;17.90;99.90
5494;DHT22;2769;49.864;8.656;2022-10-17T07:51:59;18.10;99.90
5494;DHT22;2769;49.864;8.656;2022-10-17T07:54:27;18.20;99.90
5494;DHT22;2769;49.864;8.656;2022-10-17T07:56:55;18.40;99.90
5494;DHT22;2769;49.864;8.656;2022-10-17T07:59:25;18.60;99.90
5494;DHT22;2769;49.864;8.656;2022-10-17T08:01:54;18.70;99.90
5494;DHT22;2769;49.864;8.656;2022-10-17T08:04:22;18.90;99.90
5494;DHT22;2769;49.864;8.656;2022-10-17T08:06:51;19.00;99.90
5494;DHT22;2769;49.864;8.656;2022-10-17T08:09:26;19.20;99.90
5494;DHT22;2769;49.864;8.656;2022-10-17T08:11:55;19.30;99.90
5494;DHT22;2769;49.864;8.656;2022-10-17T08:14:25;19.40;99.90
5494;DHT22;2769;49.864;8.656;2022-10-17T08:16:53;19.60;99.90
5494;DHT22;2769;49.864;8.656;2022-10-17T08:19:22;19.90;99.90
5494;DHT22;2769;49.864;8.656;2022-10-17T08:21:50;20.00;99.90
5494;DHT22;2769;49.864;8.656;2022-10-17T08:24:20;20.10;99.90
5494;DHT22;2769;49.864;8.656;2022-10-17T08:26:48;20.10;99.90
5494;DHT22;2769;49.864;8.656;2022-10-17T08:29:18;20.30;99.90
5494;DHT22;2769;49.864;8.656;2022-10-17T08:31:47;20.50;99.90
5494;DHT22;2769;49.864;8.656;2022-10-17T08:34:24;20.50;99.90
5494;DHT22;2769;49.864;8.656;2022-10-17T08:36:52;20.60;99.90
5494;DHT22;2769;49.864;8.656;2022-10-17T08:39:21;20.70;99.90
5494;DHT22;2769;49.864;8.656;2022-10-17T08:42:00;20.90;99.90
5494;DHT22;2769;49.864;8.656;2022-10-17T08:44:38;21.00;99.90
5494;DHT22;2769;49.864;8.656;2022-10-17T08:47:14;21.20;99.90
5494;DHT22;2769;49.864;8.656;2022-10-17T08:49:47;21.30;99.90
5494;DHT22;2769;49.864;8.656;2022-10-17T08:52:26;21.30;99.90
5494;DHT22;2769;49.864;8.656;2022-10-17T08:54:57;21.40;99.90
5494;DHT22;2769;49.864;8.656;2022-10-17T08:57:25;21.50;99.90
5494;DHT22;2769;49.864;8.656;2022-10-17T08:59:55;21.70;99.90
5494;DHT22;2769;49.864;8.656;2022-10-17T09:02:40;21.70;99.90
5494;DHT22;2769;49.864;8.656;2022-10-17T09:05:32;21.80;99.90
5494;DHT22;2769;49.864;8.656;2022-10-17T09:08:09;22.10;99.90
5494;DHT22;2769;49.864;8.656;2022-10-17T09:10:49;22.20;99.90
5494;DHT22;2769;49.864;8.656;2022-10-17T09:13:28;22.60;99.90
5494;DHT22;2769;49.864;8.656;2022-10-17T09:16:19;22.90;99.90
5494;DHT22;2769;49.864;8.656;2022-10-17T09:18:59;22.90;99.90
5494;DHT22;2769;49.864;8.656;2022-10-17T09:21:38;23.00;99.90
5494;DHT22;2769;49.864;8.656;2022-10-17T09:24:13;23.50;99.90
5494;DHT22;2769;49.864;8.656;2022-10-17T09:26:44;23.80;99.90
5494;DHT22;2769;49.864;8.656;2022-10-17T09:29:19;23.50;99.90
5494;DHT22;2769;49.864;8.656;2022-10-17T09:31:52;23.70;99.90
5494;DHT22;2769;49.864;8.656;2022-10-17T09:34:28;23.60;99.90
5494;DHT22;2769;49.864;8.656;2022-10-17T09:36:57;23.60;99.90
5494;DHT22;2769;49.864;8.656;2022-10-17T09:39:27;23.40;99.90
5494;DHT22;2769;49.864;8.656;2022-10-17T09:41:59;23.50;99.90
5494;DHT22;2769;49.864;8.656;2022-10-17T09:44:30;23.50;99.90
5494;DHT22;2769;49.864;8.656;2022-10-17T09:47:09;23.60;99.90
5494;DHT22;2769;49.864;8.656;2022-10-17T09:49:42;24.10;99.90
5494;DHT22;2769;49.864;8.656;2022-10-17T09:52:14;24.60;99.90
5494;DHT22;2769;49.864;8.656;2022-10-17T09:54:45;25.10;99.90
5494;DHT22;2769;49.864;8.656;2022-10-17T09:57:15;25.30;99.90
5494;DHT22;2769;49.864;8.656;2022-10-17T09:59:46;26.40;99.90
5494;DHT22;2769;49.864;8.656;2022-10-17T10:02:18;26.90;99.90
5494;DHT22;2769;49.864;8.656;2022-10-17T10:04:56;27.40;99.90
5494;DHT22;2769;49.864;8.656;2022-10-17T10:07:35;27.80;99.90
5494;DHT22;2769;49.864;8.656;2022-10-17T10:10:06;28.20;99.90
5494;DHT22;2769;49.864;8.656;2022-10-17T10:12:37;29.60;99.90
5494;DHT22;2769;49.864;8.656;2022-10-17T10:15:32;29.30;99.90
5494;DHT22;2769;49.864;8.656;2022-10-17T10:18:01;28.00;99.90
5494;DHT22;2769;49.864;8.656;2022-10-17T10:20:34;27.30;99.90
5494;DHT22;2769;49.864;8.656;2022-10-17T10:23:13;27.10;99.90
5494;DHT22;2769;49.864;8.656;2022-10-17T10:25:51;27.40;99.90
5494;DHT22;2769;49.864;8.656;2022-10-17T10:28:24;27.80;99.90
5494;DHT22;2769;49.864;8.656;2022-10-17T10:30:54;27.80;99.90
5494;DHT22;2769;49.864;8.656;2022-10-17T10:33:27;27.90;99.90
5494;DHT22;2769;49.864;8.656;2022-10-17T10:35:59;29.10;99.90
5494;DHT22;2769;49.864;8.656;2022-10-17T10:38:30;32.20;99.90
5494;DHT22;2769;49.864;8.656;2022-10-17T10:41:02;34.90;95.60
5494;DHT22;2769;49.864;8.656;2022-10-17T10:43:34;37.30;90.30
5494;DHT22;2769;49.864;8.656;2022-10-17T10:46:05;37.90;81.60
5494;DHT22;2769;49.864;8.656;2022-10-17T10:48:49;38.60;77.70
5494;DHT22;2769;49.864;8.656;2022-10-17T10:51:24;39.30;70.70
5494;DHT22;2769;49.864;8.656;2022-10-17T10:53:58;40.20;68.60
5494;DHT22;2769;49.864;8.656;2022-10-17T10:56:32;40.50;64.30
5494;DHT22;2769;49.864;8.656;2022-10-17T10:59:05;40.00;62.00
5494;DHT22;2769;49.864;8.656;2022-10-17T11:01:42;40.00;62.70
5494;DHT22;2769;49.864;8.656;2022-10-17T11:04:29;40.40;60.20
5494;DHT22;2769;49.864;8.656;2022-10-17T11:07:02;40.10;59.90
5494;DHT22;2769;49.864;8.656;2022-10-17T11:09:43;39.80;59.60
5494;DHT22;2769;49.864;8.656;2022-10-17T11:12:17;38.90;61.00
5494;DHT22;2769;49.864;8.656;2022-10-17T11:14:52;38.30;61.20
5494;DHT22;2769;49.864;8.656;2022-10-17T11:17:29;38.90;60.70
5494;DHT22;2769;49.864;8.656;2022-10-17T11:20:09;38.30;60.60
5494;DHT22;2769;49.864;8.656;2022-10-17T11:22:46;34.80;66.30
5494;DHT22;2769;49.864;8.656;2022-10-17T11:25:24;32.90;72.60
5494;DHT22;2769;49.864;8.656;2022-10-17T11:27:55;31.40;77.40
5494;DHT22;2769;49.864;8.656;2022-10-17T11:30:39;30.30;82.40
5494;DHT22;2769;49.864;8.656;2022-10-17T11:33:17;29.40;88.40
5494;DHT22;2769;49.864;8.656;2022-10-17T11:35:48;28.80;90.50
5494;DHT22;2769;49.864;8.656;2022-10-17T11:38:21;27.80;93.90
5494;DHT22;2769;49.864;8.656;2022-10-17T11:40:55;27.40;96.40
5494;DHT22;2769;49.864;8.656;2022-10-17T11:43:28;27.10;98.20
5494;DHT22;2769;49.864;8.656;2022-10-17T11:46:06;26.90;99.90
5494;DHT22;2769;49.864;8.656;2022-10-17T11:48:41;26.60;99.90
5494;DHT22;2769;49.864;8.656;2022-10-17T11:51:13;26.30;99.90
5494;DHT22;2769;49.864;8.656;2022-10-17T11:54:07;26.50;99.90
5494;DHT22;2769;49.864;8.656;2022-10-17T11:56:43;27.00;99.90
5494;DHT22;2769;49.864;8.656;2022-10-17T11:59:30;27.30;99.90
5494;DHT22;2769;49.864;8.656;2022-10-17T12:02:11;27.40;99.90
5494;DHT22;2769;49.864;8.656;2022-10-17T12:04:51;27.60;99.90
5494;DHT22;2769;49.864;8.656;2022-10-17T12:07:27;27.70;99.90
5494;DHT22;2769;49.864;8.656;2022-10-17T12:10:04;27.00;99.90
5494;DHT22;2769;49.864;8.656;2022-10-17T12:12:40;26.50;99.90
5494;DHT22;2769;49.864;8.656;2022-10-17T12:15:29;26.30;99.90
5494;DHT22;2769;49.864;8.656;2022-10-17T12:17:59;27.00;99.90
5494;DHT22;2769;49.864;8.656;2022-10-17T12:20:31;28.30;99.90
5494;DHT22;2769;49.864;8.656;2022-10-17T12:23:04;28.90;99.90
5494;DHT22;2769;49.864;8.656;2022-10-17T12:25:36;28.60;99.90
5494;DHT22;2769;49.864;8.656;2022-10-17T12:28:12;28.50;99.90
5494;DHT22;2769;49.864;8.656;2022-10-17T12:30:50;28.50;99.90
5494;DHT22;2769;49.864;8.656;2022-10-17T12:33:21;29.30;99.90
5494;DHT22;2769;49.864;8.656;2022-10-17T12:35:50;29.30;99.90
5494;DHT22;2769;49.864;8.656;2022-10-17T12:38:24;30.00;99.90
5494;DHT22;2769;49.864;8.656;2022-10-17T12:40:59;30.70;99.50
5494;DHT22;2769;49.864;8.656;2022-10-17T12:43:48;32.30;97.10
5494;DHT22;2769;49.864;8.656;2022-10-17T12:46:44;33.90;93.40
5494;DHT22;2769;49.864;8.656;2022-10-17T12:49:21;35.30;90.60
5494;DHT22;2769;49.864;8.656;2022-10-17T12:55:11;36.20;81.00
5494;DHT22;2769;49.864;8.656;2022-10-17T12:57:51;36.20;77.90
5494;DHT22;2769;49.864;8.656;2022-10-17T13:00:26;35.80;78.00
5494;DHT22;2769;49.864;8.656;2022-10-17T13:03:02;35.50;78.00
5494;DHT22;2769;49.864;8.656;2022-10-17T13:05:35;35.60;75.80
5494;DHT22;2769;49.864;8.656;2022-10-17T13:08:14;35.50;76.90
5494;DHT22;2769;49.864;8.656;2022-10-17T13:10:46;36.00;76.10
5494;DHT22;2769;49.864;8.656;2022-10-17T13:13:21;35.80;76.10
5494;DHT22;2769;49.864;8.656;2022-10-17T13:15:52;35.90;75.80
5494;DHT22;2769;49.864;8.656;2022-10-17T13:18:22;36.00;76.10
5494;DHT22;2769;49.864;8.656;2022-10-17T13:20:56;36.10;75.40
5494;DHT22;2769;49.864;8.656;2022-10-17T13:23:25;36.50;75.30
5494;DHT22;2769;49.864;8.656;2022-10-17T13:26:12;37.10;73.90
5494;DHT22;2769;49.864;8.656;2022-10-17T13:28:42;37.30;69.40
5494;DHT22;2769;49.864;8.656;2022-10-17T13:31:27;37.30;70.90
5494;DHT22;2769;49.864;8.656;2022-10-17T13:33:58;36.80;70.30
5494;DHT22;2769;49.864;8.656;2022-10-17T13:36:28;36.10;71.80
5494;DHT22;2769;49.864;8.656;2022-10-17T13:38:58;36.00;72.70
5494;DHT22;2769;49.864;8.656;2022-10-17T13:41:28;35.80;73.60
5494;DHT22;2769;49.864;8.656;2022-10-17T13:44:10;35.80;73.50
5494;DHT22;2769;49.864;8.656;2022-10-17T13:46:40;35.60;73.30
5494;DHT22;2769;49.864;8.656;2022-10-17T13:49:15;35.30;75.30
5494;DHT22;2769;49.864;8.656;2022-10-17T13:51:46;34.70;76.70
5494;DHT22;2769;49.864;8.656;2022-10-17T13:54:33;34.80;76.40
5494;DHT22;2769;49.864;8.656;2022-10-17T13:57:03;34.50;76.80
5494;DHT22;2769;49.864;8.656;2022-10-17T13:59:36;34.50;77.60
5494;DHT22;2769;49.864;8.656;2022-10-17T14:02:08;34.20;78.40
5494;DHT22;2769;49.864;8.656;2022-10-17T14:04:40;33.60;80.00
5494;DHT22;2769;49.864;8.656;2022-10-17T14:07:34;34.00;80.00
5494;DHT22;2769;49.864;8.656;2022-10-17T14:10:25;33.80;80.30
5494;DHT22;2769;49.864;8.656;2022-10-17T14:12:54;32.90;82.80
5494;DHT22;2769;49.864;8.656;2022-10-17T14:15:26;32.70;84.20
5494;DHT22;2769;49.864;8.656;2022-10-17T14:17:57;33.10;83.20
5494;DHT22;2769;49.864;8.656;2022-10-17T14:20:33;33.10;84.00
5494;DHT22;2769;49.864;8.656;2022-10-17T14:23:34;33.10;83.10
5494;DHT22;2769;49.864;8.656;2022-10-17T14:26:11;32.70;84.40
5494;DHT22;2769;49.864;8.656;2022-10-17T14:28:41;33.10;84.20
5494;DHT22;2769;49.864;8.656;2022-10-17T14:31:22;33.00;84.40
5494;DHT22;2769;49.864;8.656;2022-10-17T14:33:52;33.30;84.30
5494;DHT22;2769;49.864;8.656;2022-10-17T14:36:30;32.60;84.80
5494;DHT22;2769;49.864;8.656;2022-10-17T14:38:59;31.90;87.00
5494;DHT22;2769;49.864;8.656;2022-10-17T14:41:29;31.00;90.30
5494;DHT22;2769;49.864;8.656;2022-10-17T14:44:22;30.30;91.70
5494;DHT22;2769;49.864;8.656;2022-10-17T14:46:56;29.40;93.40
5494;DHT22;2769;49.864;8.656;2022-10-17T14:49:35;29.00;94.90
5494;DHT22;2769;49.864;8.656;2022-10-17T14:52:19;28.60;96.10
5494;DHT22;2769;49.864;8.656;2022-10-17T14:54:50;28.20;98.00
5494;DHT22;2769;49.864;8.656;2022-10-17T14:57:24;27.70;99.90
5494;DHT22;2769;49.864;8.656;2022-10-17T14:59:54;27.40;99.90
5494;DHT22;2769;49.864;8.656;2022-10-17T15:02:27;27.30;99.90
5494;DHT22;2769;49.864;8.656;2022-10-17T15:04:56;27.10;99.90
5494;DHT22;2769;49.864;8.656;2022-10-17T15:07:24;26.90;99.90
5494;DHT22;2769;49.864;8.656;2022-10-17T15:09:53;26.80;99.90
5494;DHT22;2769;49.864;8.656;2022-10-17T15:12:23;26.80;99.90
5494;DHT22;2769;49.864;8.656;2022-10-17T15:14:52;26.80;99.90
5494;DHT22;2769;49.864;8.656;2022-10-17T15:17:24;26.60;99.90
5494;DHT22;2769;49.864;8.656;2022-10-17T15:19:53;26.40;99.90
5494;DHT22;2769;49.864;8.656;2022-10-17T15:22:22;26.30;99.90
5494;DHT22;2769;49.864;8.656;2022-10-17T15:24:51;26.30;99.90
5494;DHT22;2769;49.864;8.656;2022-10-17T15:27:22;26.20;99.90
5494;DHT22;2769;49.864;8.656;2022-10-17T15:29:51;26.30;99.90
5494;DHT22;2769;49.864;8.656;2022-10-17T15:32:19;26.50;99.90
5494;DHT22;2769;49.864;8.656;2022-10-17T15:34:49;26.80;99.90
5494;DHT22;2769;49.864;8.656;2022-10-17T15:37:20;27.10;99.90
5494;DHT22;2769;49.864;8.656;2022-10-17T15:39:50;27.10;99.90
5494;DHT22;2769;49.864;8.656;2022-10-17T15:42:21;27.10;99.90
5494;DHT22;2769;49.864;8.656;2022-10-17T15:44:50;27.00;99.90
5494;DHT22;2769;49.864;8.656;2022-10-17T15:47:22;27.00;99.90
5494;DHT22;2769;49.864;8.656;2022-10-17T15:49:53;26.60;99.90
5494;DHT22;2769;49.864;8.656;2022-10-17T15:52:22;26.40;99.90
5494;DHT22;2769;49.864;8.656;2022-10-17T15:54:53;26.30;99.90
5494;DHT22;2769;49.864;8.656;2022-10-17T15:57:29;26.20;99.90
5494;DHT22;2769;49.864;8.656;2022-10-17T15:59:59;26.00;99.90
5494;DHT22;2769;49.864;8.656;2022-10-17T16:02:27;26.00;99.90
5494;DHT22;2769;49.864;8.656;2022-10-17T16:04:57;25.80;99.90
5494;DHT22;2769;49.864;8.656;2022-10-17T16:07:25;25.60;99.90
5494;DHT22;2769;49.864;8.656;2022-10-17T16:09:54;25.40;99.90
5494;DHT22;2769;49.864;8.656;2022-10-17T16:12:26;25.20;99.90
5494;DHT22;2769;49.864;8.656;2022-10-17T16:14:55;25.00;99.90
5494;DHT22;2769;49.864;8.656;2022-10-17T16:17:24;24.70;99.90
5494;DHT22;2769;49.864;8.656;2022-10-17T16:19:52;23.90;99.90
5494;DHT22;2769;49.864;8.656;2022-10-17T16:22:26;24.40;99.90
5494;DHT22;2769;49.864;8.656;2022-10-17T16:24:58;24.20;99.90
5494;DHT22;2769;49.864;8.656;2022-10-17T16:27:36;24.10;99.90
5494;DHT22;2769;49.864;8.656;2022-10-17T16:30:06;23.90;99.90
5494;DHT22;2769;49.864;8.656;2022-10-17T16:32:34;23.70;99.90
5494;DHT22;2769;49.864;8.656;2022-10-17T16:35:03;23.70;99.90
5494;DHT22;2769;49.864;8.656;2022-10-17T16:37:33;23.50;99.90
5494;DHT22;2769;49.864;8.656;2022-10-17T16:40:02;23.40;99.90
5494;DHT22;2769;49.864;8.656;2022-10-17T16:42:30;23.20;99.90
5494;DHT22;2769;49.864;8.656;2022-10-17T16:44:59;23.20;99.90
5494;DHT22;2769;49.864;8.656;2022-10-17T16:47:27;23.00;99.90
5494;DHT22;2769;49.864;8.656;2022-10-17T16:49:55;23.00;99.90
5494;DHT22;2769;49.864;8.656;2022-10-17T16:52:23;22.90;99.90
5494;DHT22;2769;49.864;8.656;2022-10-17T16:54:53;22.80;99.90
5494;DHT22;2769;49.864;8.656;2022-10-17T16:57:21;22.60;99.90
5494;DHT22;2769;49.864;8.656;2022-10-17T16:59:49;22.60;99.90
5494;DHT22;2769;49.864;8.656;2022-10-17T17:02:18;22.50;99.90
5494;DHT22;2769;49.864;8.656;2022-10-17T17:04:47;22.40;99.90
5494;DHT22;2769;49.864;8.656;2022-10-17T17:07:15;22.30;99.90
5494;DHT22;2769;49.864;8.656;2022-10-17T17:09:45;22.10;99.90
5494;DHT22;2769;49.864;8.656;2022-10-17T17:12:15;22.00;99.90
5494;DHT22;2769;49.864;8.656;2022-10-17T17:14:43;22.10;99.90
5494;DHT22;2769;49.864;8.656;2022-10-17T17:17:11;22.10;99.90
5494;DHT22;2769;49.864;8.656;2022-10-17T17:19:59;22.00;99.90
5494;DHT22;2769;49.864;8.656;2022-10-17T17:22:27;21.90;99.90
5494;DHT22;2769;49.864;8.656;2022-10-17T17:24:56;22.20;99.90
5494;DHT22;2769;49.864;8.656;2022-10-17T17:27:27;22.10;99.90
5494;DHT22;2769;49.864;8.656;2022-10-17T17:29:56;22.30;99.90
5494;DHT22;2769;49.864;8.656;2022-10-17T17:32:24;22.40;99.90
5494;DHT22;2769;49.864;8.656;2022-10-17T17:34:52;22.40;99.90
5494;DHT22;2769;49.864;8.656;2022-10-17T17:37:21;22.50;99.90
5494;DHT22;2769;49.864;8.656;2022-10-17T17:39:49;22.40;99.90
5494;DHT22;2769;49.864;8.656;2022-10-17T17:42:18;22.50;99.90
5494;DHT22;2769;49.864;8.656;2022-10-17T17:44:47;22.60;99.90
5494;DHT22;2769;49.864;8.656;2022-10-17T17:47:17;22.70;99.90
5494;DHT22;2769;49.864;8.656;2022-10-17T17:49:45;22.60;99.90
5494;DHT22;2769;49.864;8.656;2022-10-17T17:52:14;22.60;99.90
5494;DHT22;2769;49.864;8.656;2022-10-17T17:54:43;22.60;99.90
5494;DHT22;2769;49.864;8.656;2022-10-17T17:57:11;22.60;99.90
5494;DHT22;2769;49.864;8.656;2022-10-17T17:59:39;22.60;99.90
5494;DHT22;2769;49.864;8.656;2022-10-17T18:02:09;22.50;99.90
5494;DHT22;2769;49.864;8.656;2022-10-17T18:04:38;22.40;99.90
5494;DHT22;2769;49.864;8.656;2022-10-17T18:07:06;22.30;99.90
5494;DHT22;2769;49.864;8.656;2022-10-17T18:09:34;22.30;99.90
5494;DHT22;2769;49.864;8.656;2022-10-17T18:12:05;22.30;99.90
5494;DHT22;2769;49.864;8.656;2022-10-17T18:14:33;22.40;99.90
5494;DHT22;2769;49.864;8.656;2022-10-17T18:17:01;22.30;99.90
5494;DHT22;2769;49.864;8.656;2022-10-17T18:19:31;22.30;99.90
5494;DHT22;2769;49.864;8.656;2022-10-17T18:21:59;22.20;99.90
5494;DHT22;2769;49.864;8.656;2022-10-17T18:24:27;22.20;99.90
5494;DHT22;2769;49.864;8.656;2022-10-17T18:26:56;22.20;99.90
5494;DHT22;2769;49.864;8.656;2022-10-17T18:29:25;22.30;99.90
5494;DHT22;2769;49.864;8.656;2022-10-17T18:31:55;22.20;99.90
5494;DHT22;2769;49.864;8.656;2022-10-17T18:34:23;22.10;99.90
5494;DHT22;2769;49.864;8.656;2022-10-17T18:36:54;22.20;99.90
5494;DHT22;2769;49.864;8.656;2022-10-17T18:39:23;22.20;99.90
5494;DHT22;2769;49.864;8.656;2022-10-17T18:41:51;22.20;99.90
5494;DHT22;2769;49.864;8.656;2022-10-17T18:44:19;22.20;99.90
5494;DHT22;2769;49.864;8.656;2022-10-17T18:46:47;22.20;99.90
5494;DHT22;2769;49.864;8.656;2022-10-17T18:49:17;22.20;99.90
5494;DHT22;2769;49.864;8.656;2022-10-17T18:51:46;22.20;99.90
5494;DHT22;2769;49.864;8.656;2022-10-17T18:54:17;22.00;99.90
5494;DHT22;2769;49.864;8.656;2022-10-17T18:56:46;22.00;99.90
5494;DHT22;2769;49.864;8.656;2022-10-17T18:59:14;22.00;99.90
5494;DHT22;2769;49.864;8.656;2022-10-17T19:01:43;22.00;99.90
5494;DHT22;2769;49.864;8.656;2022-10-17T19:04:11;22.00;99.90
5494;DHT22;2769;49.864;8.656;2022-10-17T19:06:42;21.80;99.90
5494;DHT22;2769;49.864;8.656;2022-10-17T19:09:11;21.80;99.90
5494;DHT22;2769;49.864;8.656;2022-10-17T19:11:41;21.70;99.90
5494;DHT22;2769;49.864;8.656;2022-10-17T19:14:11;21.80;99.90
5494;DHT22;2769;49.864;8.656;2022-10-17T19:16:41;21.90;99.90
5494;DHT22;2769;49.864;8.656;2022-10-17T19:19:12;21.90;99.90
5494;DHT22;2769;49.864;8.656;2022-10-17T19:21:41;21.90;99.90
5494;DHT22;2769;49.864;8.656;2022-10-17T19:24:11;21.90;99.90
5494;DHT22;2769;49.864;8.656;2022-10-17T19:26:42;21.90;99.90
5494;DHT22;2769;49.864;8.656;2022-10-17T19:29:12;21.90;99.90
5494;DHT22;2769;49.864;8.656;2022-10-17T19:31:41;21.80;99.90
5494;DHT22;2769;49.864;8.656;2022-10-17T19:34:10;21.70;99.90
5494;DHT22;2769;49.864;8.656;2022-10-17T19:36:39;21.10;99.90
5494;DHT22;2769;49.864;8.656;2022-10-17T19:39:10;21.70;99.90
5494;DHT22;2769;49.864;8.656;2022-10-17T19:41:43;21.70;99.90
5494;DHT22;2769;49.864;8.656;2022-10-17T19:44:12;21.70;99.90
5494;DHT22;2769;49.864;8.656;2022-10-17T19:46:40;21.70;99.90
5494;DHT22;2769;49.864;8.656;2022-10-17T19:49:11;21.60;99.90
5494;DHT22;2769;49.864;8.656;2022-10-17T19:51:39;21.60;99.90
5494;DHT22;2769;49.864;8.656;2022-10-17T19:54:08;21.60;99.90
5494;DHT22;2769;49.864;8.656;2022-10-17T19:56:37;21.60;99.90
5494;DHT22;2769;49.864;8.656;2022-10-17T19:59:09;21.50;99.90
5494;DHT22;2769;49.864;8.656;2022-10-17T20:01:38;21.60;99.90
5494;DHT22;2769;49.864;8.656;2022-10-17T20:04:07;21.50;99.90
5494;DHT22;2769;49.864;8.656;2022-10-17T20:06:37;21.50;99.90
5494;DHT22;2769;49.864;8.656;2022-10-17T20:09:06;21.60;99.90
5494;DHT22;2769;49.864;8.656;2022-10-17T20:11:39;21.60;99.90
5494;DHT22;2769;49.864;8.656;2022-10-17T20:14:09;21.60;99.90
5494;DHT22;2769;49.864;8.656;2022-10-17T20:16:37;21.40;99.90
5494;DHT22;2769;49.864;8.656;2022-10-17T20:19:07;21.40;99.90
5494;DHT22;2769;49.864;8.656;2022-10-17T20:21:36;21.30;99.90
5494;DHT22;2769;49.864;8.656;2022-10-17T20:24:07;21.30;99.90
5494;DHT22;2769;49.864;8.656;2022-10-17T20:26:36;21.20;99.90
5494;DHT22;2769;49.864;8.656;2022-10-17T20:29:08;21.20;99.90
5494;DHT22;2769;49.864;8.656;2022-10-17T20:31:40;21.30;99.90
5494;DHT22;2769;49.864;8.656;2022-10-17T20:34:13;21.30;99.90
5494;DHT22;2769;49.864;8.656;2022-10-17T20:36:42;21.30;99.90
5494;DHT22;2769;49.864;8.656;2022-10-17T20:39:12;21.20;99.90
5494;DHT22;2769;49.864;8.656;2022-10-17T20:41:41;21.30;99.90
5494;DHT22;2769;49.864;8.656;2022-10-17T20:44:10;21.30;99.90
5494;DHT22;2769;49.864;8.656;2022-10-17T20:46:40;21.30;99.90
5494;DHT22;2769;49.864;8.656;2022-10-17T20:49:26;21.40;99.90
5494;DHT22;2769;49.864;8.656;2022-10-17T20:51:55;21.40;99.90
5494;DHT22;2769;49.864;8.656;2022-10-17T20:54:23;21.40;99.90
5494;DHT22;2769;49.864;8.656;2022-10-17T20:56:51;21.40;99.90
5494;DHT22;2769;49.864;8.656;2022-10-17T20:59:21;21.30;99.90
5494;DHT22;2769;49.864;8.656;2022-10-17T21:01:52;21.20;99.90
5494;DHT22;2769;49.864;8.656;2022-10-17T21:04:21;21.10;99.90
5494;DHT22;2769;49.864;8.656;2022-10-17T21:07:09;21.00;99.90
5494;DHT22;2769;49.864;8.656;2022-10-17T21:09:37;21.00;99.90
5494;DHT22;2769;49.864;8.656;2022-10-17T21:12:06;21.10;99.90
5494;DHT22;2769;49.864;8.656;2022-10-17T21:14:34;21.10;99.90
5494;DHT22;2769;49.864;8.656;2022-10-17T21:17:04;21.00;99.90
5494;DHT22;2769;49.864;8.656;2022-10-17T21:19:33;20.90;99.90
5494;DHT22;2769;49.864;8.656;2022-10-17T21:22:01;21.00;99.90
5494;DHT22;2769;49.864;8.656;2022-10-17T21:24:30;21.10;99.90
5494;DHT22;2769;49.864;8.656;2022-10-17T21:26:58;21.10;99.90